sensor_id;sensor_type;location;lat;lon;timestamp;pressure;altitude;pressure_sealevel;temperature;humidity
60228;BME280;46091;46.512;6.626;2022-09-20T05:29:50;97262.28;;;14.37;49.93
60228;BME280;46091;46.512;6.626;2022-09-20T05:32:00;97264.94;;;14.70;49.43
60228;BME280;46091;46.512;6.626;2022-09-20T05:34:13;97265.50;;;14.92;49.36
60228;BME280;46091;46.512;6.626;2022-09-20T05:36:25;97265.88;;;15.09;48.87
60228;BME280;46091;46.512;6.626;2022-09-20T05:38:44;97257.63;;;15.24;49.00
60228;BME280;46091;46.512;6.626;2022-09-20T05:41:01;97272.72;;;15.36;48.76
60228;BME280;46091;46.512;6.626;2022-09-20T05:43:09;97259.19;;;15.44;48.64
60228;BME280;46091;46.512;6.626;2022-09-20T05:45:25;97270.19;;;15.55;48.19
60228;BME280;46091;46.512;6.626;2022-09-20T05:47:41;97273.88;;;15.60;48.44
60228;BME280;46091;46.512;6.626;2022-09-20T05:49:54;97275.31;;;15.63;48.18
60228;BME280;46091;46.512;6.626;2022-09-20T05:52:16;97278.81;;;15.63;48.25
60228;BME280;46091;46.512;6.626;2022-09-20T05:57:06;97281.84;;;15.67;48.10
60228;BME280;46091;46.512;6.626;2022-09-20T05:59:23;97280.38;;;15.71;48.25
60228;BME280;46091;46.512;6.626;2022-09-20T06:01:35;97278.31;;;15.73;48.11
60228;BME280;46091;46.512;6.626;2022-09-20T06:03:43;97273.41;;;15.77;48.01
60228;BME280;46091;46.512;6.626;2022-09-20T06:05:56;97283.63;;;15.80;48.04
60228;BME280;46091;46.512;6.626;2022-09-20T06:08:17;97294.66;;;15.83;47.83
60228;BME280;46091;46.512;6.626;2022-09-20T06:10:51;97294.44;;;15.85;47.84
60228;BME280;46091;46.512;6.626;2022-09-20T06:13:00;97299.38;;;15.88;47.59
60228;BME280;46091;46.512;6.626;2022-09-20T06:15:13;97305.31;;;15.90;47.69
60228;BME280;46091;46.512;6.626;2022-09-20T06:17:26;97297.09;;;15.91;47.67
60228;BME280;46091;46.512;6.626;2022-09-20T06:19:35;97304.88;;;15.93;47.75
60228;BME280;46091;46.512;6.626;2022-09-20T06:21:48;97299.09;;;15.96;47.75
60228;BME280;46091;46.512;6.626;2022-09-20T06:23:56;97305.88;;;15.98;47.38
60228;BME280;46091;46.512;6.626;2022-09-20T06:26:01;97299.50;;;15.99;47.76
60228;BME280;46091;46.512;6.626;2022-09-20T06:28:13;97308.91;;;16.02;47.38
60228;BME280;46091;46.512;6.626;2022-09-20T06:30:21;97301.50;;;16.04;47.28
60228;BME280;46091;46.512;6.626;2022-09-20T06:32:31;97311.97;;;16.06;47.58
60228;BME280;46091;46.512;6.626;2022-09-20T06:34:35;97310.72;;;16.08;47.33
60228;BME280;46091;46.512;6.626;2022-09-20T06:36:43;97304.97;;;16.11;47.30
60228;BME280;46091;46.512;6.626;2022-09-20T06:39:16;97308.81;;;16.15;47.35
60228;BME280;46091;46.512;6.626;2022-09-20T06:41:39;97313.13;;;16.16;47.24
60228;BME280;46091;46.512;6.626;2022-09-20T06:43:43;97309.00;;;16.20;47.09
60228;BME280;46091;46.512;6.626;2022-09-20T06:45:46;97312.28;;;16.22;47.19
60228;BME280;46091;46.512;6.626;2022-09-20T06:47:51;97306.94;;;16.22;47.01
60228;BME280;46091;46.512;6.626;2022-09-20T06:49:54;97305.91;;;16.23;47.13
60228;BME280;46091;46.512;6.626;2022-09-20T06:51:59;97315.53;;;16.24;47.00
60228;BME280;46091;46.512;6.626;2022-09-20T06:54:04;97321.47;;;16.26;47.15
60228;BME280;46091;46.512;6.626;2022-09-20T06:56:14;97304.66;;;16.26;46.99
60228;BME280;46091;46.512;6.626;2022-09-20T06:58:18;97312.44;;;16.27;46.80
60228;BME280;46091;46.512;6.626;2022-09-20T07:00:21;97315.09;;;16.27;46.68
60228;BME280;46091;46.512;6.626;2022-09-20T07:02:24;97314.06;;;16.28;46.72
60228;BME280;46091;46.512;6.626;2022-09-20T07:04:29;97311.81;;;16.32;46.48
60228;BME280;46091;46.512;6.626;2022-09-20T07:06:34;97308.09;;;16.33;46.90
60228;BME280;46091;46.512;6.626;2022-09-20T07:08:37;97311.59;;;16.34;46.67
60228;BME280;46091;46.512;6.626;2022-09-20T07:10:41;97314.41;;;16.39;46.78
60228;BME280;46091;46.512;6.626;2022-09-20T07:12:44;97312.31;;;16.41;46.49
60228;BME280;46091;46.512;6.626;2022-09-20T07:14:48;97315.63;;;16.43;46.78
60228;BME280;46091;46.512;6.626;2022-09-20T07:16:52;97310.66;;;16.46;46.54
60228;BME280;46091;46.512;6.626;2022-09-20T07:18:55;97300.81;;;16.47;46.58
60228;BME280;46091;46.512;6.626;2022-09-20T07:21:00;97312.88;;;16.49;46.60
60228;BME280;46091;46.512;6.626;2022-09-20T07:23:03;97315.94;;;16.53;46.33
60228;BME280;46091;46.512;6.626;2022-09-20T07:25:07;97313.06;;;16.54;46.58
60228;BME280;46091;46.512;6.626;2022-09-20T07:27:11;97303.19;;;16.55;46.40
60228;BME280;46091;46.512;6.626;2022-09-20T07:29:16;97297.19;;;16.59;46.57
60228;BME280;46091;46.512;6.626;2022-09-20T07:31:21;97300.25;;;16.63;46.32
60228;BME280;46091;46.512;6.626;2022-09-20T07:33:27;97315.84;;;16.66;46.44
60228;BME280;46091;46.512;6.626;2022-09-20T07:35:32;97306.59;;;16.69;46.53
60228;BME280;46091;46.512;6.626;2022-09-20T07:37:37;97308.22;;;16.70;46.38
60228;BME280;46091;46.512;6.626;2022-09-20T07:39:42;97316.59;;;16.73;46.18
60228;BME280;46091;46.512;6.626;2022-09-20T07:41:46;97310.63;;;16.78;46.26
60228;BME280;46091;46.512;6.626;2022-09-20T07:43:51;97313.66;;;16.81;46.17
60228;BME280;46091;46.512;6.626;2022-09-20T07:45:55;97312.03;;;16.80;46.14
60228;BME280;46091;46.512;6.626;2022-09-20T07:48:00;97312.47;;;16.77;46.06
60228;BME280;46091;46.512;6.626;2022-09-20T07:50:07;97314.94;;;16.79;45.80
60228;BME280;46091;46.512;6.626;2022-09-20T07:52:10;97316.56;;;16.80;45.77
60228;BME280;46091;46.512;6.626;2022-09-20T07:54:17;97311.66;;;16.77;45.64
60228;BME280;46091;46.512;6.626;2022-09-20T07:56:21;97312.91;;;16.74;45.75
60228;BME280;46091;46.512;6.626;2022-09-20T07:58:25;97325.03;;;16.77;45.85
60228;BME280;46091;46.512;6.626;2022-09-20T08:00:31;97321.09;;;16.79;45.71
60228;BME280;46091;46.512;6.626;2022-09-20T08:02:34;97319.81;;;16.82;45.65
60228;BME280;46091;46.512;6.626;2022-09-20T08:04:37;97315.88;;;16.84;45.69
60228;BME280;46091;46.512;6.626;2022-09-20T08:06:43;97313.66;;;16.81;45.36
60228;BME280;46091;46.512;6.626;2022-09-20T08:08:46;97320.03;;;16.80;45.45
60228;BME280;46091;46.512;6.626;2022-09-20T08:10:51;97325.75;;;16.84;45.46
60228;BME280;46091;46.512;6.626;2022-09-20T08:12:58;97322.63;;;16.87;45.18
60228;BME280;46091;46.512;6.626;2022-09-20T08:15:22;97320.38;;;16.91;45.03
60228;BME280;46091;46.512;6.626;2022-09-20T08:17:27;97324.00;;;16.96;44.94
60228;BME280;46091;46.512;6.626;2022-09-20T08:19:30;97325.63;;;16.97;44.85
60228;BME280;46091;46.512;6.626;2022-09-20T08:21:36;97320.69;;;17.01;44.79
60228;BME280;46091;46.512;6.626;2022-09-20T08:23:44;97323.72;;;17.04;44.69
60228;BME280;46091;46.512;6.626;2022-09-20T08:25:50;97329.00;;;17.11;44.56
60228;BME280;46091;46.512;6.626;2022-09-20T08:27:57;97328.91;;;17.17;44.77
60228;BME280;46091;46.512;6.626;2022-09-20T08:30:01;97324.97;;;17.20;44.78
60228;BME280;46091;46.512;6.626;2022-09-20T08:32:04;97326.19;;;17.24;44.49
60228;BME280;46091;46.512;6.626;2022-09-20T08:34:08;97323.66;;;17.29;44.63
60228;BME280;46091;46.512;6.626;2022-09-20T08:36:14;97329.16;;;17.34;44.29
60228;BME280;46091;46.512;6.626;2022-09-20T08:38:17;97320.09;;;17.35;44.41
60228;BME280;46091;46.512;6.626;2022-09-20T08:40:40;97323.13;;;17.39;44.39
60228;BME280;46091;46.512;6.626;2022-09-20T08:42:46;97326.41;;;17.41;44.37
60228;BME280;46091;46.512;6.626;2022-09-20T08:44:51;97325.75;;;17.45;44.34
60228;BME280;46091;46.512;6.626;2022-09-20T08:47:03;97330.63;;;17.49;44.10
60228;BME280;46091;46.512;6.626;2022-09-20T08:49:16;97321.69;;;17.55;44.11
60228;BME280;46091;46.512;6.626;2022-09-20T08:51:31;97327.22;;;17.60;44.02
60228;BME280;46091;46.512;6.626;2022-09-20T08:53:35;97336.41;;;17.64;43.94
60228;BME280;46091;46.512;6.626;2022-09-20T08:55:50;97334.13;;;17.67;43.76
60228;BME280;46091;46.512;6.626;2022-09-20T08:57:56;97331.63;;;17.66;43.73
60228;BME280;46091;46.512;6.626;2022-09-20T09:00:00;97332.25;;;17.68;43.53
60228;BME280;46091;46.512;6.626;2022-09-20T09:02:14;97329.19;;;17.64;43.73
60228;BME280;46091;46.512;6.626;2022-09-20T09:04:22;97332.25;;;17.68;43.47
60228;BME280;46091;46.512;6.626;2022-09-20T09:06:25;97332.25;;;17.68;43.30
60228;BME280;46091;46.512;6.626;2022-09-20T09:08:34;97332.44;;;17.66;43.39
60228;BME280;46091;46.512;6.626;2022-09-20T09:10:39;97324.25;;;17.68;43.30
60228;BME280;46091;46.512;6.626;2022-09-20T09:12:45;97325.06;;;17.68;43.40
60228;BME280;46091;46.512;6.626;2022-09-20T09:14:52;97319.28;;;17.71;43.28
60228;BME280;46091;46.512;6.626;2022-09-20T09:17:00;97322.88;;;17.77;43.30
60228;BME280;46091;46.512;6.626;2022-09-20T09:19:25;97318.28;;;17.84;43.12
60228;BME280;46091;46.512;6.626;2022-09-20T09:21:34;97320.50;;;17.87;42.91
60228;BME280;46091;46.512;6.626;2022-09-20T09:23:39;97319.44;;;17.88;42.90
60228;BME280;46091;46.512;6.626;2022-09-20T09:25:43;97318.88;;;17.86;42.79
60228;BME280;46091;46.512;6.626;2022-09-20T09:27:51;97310.84;;;17.86;43.00
60228;BME280;46091;46.512;6.626;2022-09-20T09:29:56;97313.06;;;17.89;42.79
60228;BME280;46091;46.512;6.626;2022-09-20T09:32:22;97308.91;;;17.93;42.65
60228;BME280;46091;46.512;6.626;2022-09-20T09:34:27;97306.47;;;17.92;42.60
60228;BME280;46091;46.512;6.626;2022-09-20T09:36:30;97313.31;;;17.99;42.60
60228;BME280;46091;46.512;6.626;2022-09-20T09:38:37;97310.44;;;18.01;42.62
60228;BME280;46091;46.512;6.626;2022-09-20T09:40:48;97315.56;;;18.02;42.52
60228;BME280;46091;46.512;6.626;2022-09-20T09:42:53;97299.88;;;18.06;42.37
60228;BME280;46091;46.512;6.626;2022-09-20T09:45:09;97308.47;;;18.08;42.22
60228;BME280;46091;46.512;6.626;2022-09-20T09:47:22;97293.25;;;18.09;42.17
60228;BME280;46091;46.512;6.626;2022-09-20T09:49:33;97299.41;;;18.09;42.35
60228;BME280;46091;46.512;6.626;2022-09-20T09:51:37;97295.69;;;18.10;42.25
60228;BME280;46091;46.512;6.626;2022-09-20T09:53:44;97303.84;;;18.15;42.19
60228;BME280;46091;46.512;6.626;2022-09-20T09:56:10;97295.59;;;18.17;41.98
60228;BME280;46091;46.512;6.626;2022-09-20T09:58:29;97298.38;;;18.22;41.91
60228;BME280;46091;46.512;6.626;2022-09-20T10:00:35;97289.31;;;18.23;41.98
60228;BME280;46091;46.512;6.626;2022-09-20T10:03:05;97296.31;;;18.24;41.69
60228;BME280;46091;46.512;6.626;2022-09-20T10:05:19;97291.78;;;18.24;41.73
60228;BME280;46091;46.512;6.626;2022-09-20T10:07:30;97283.28;;;18.27;41.43
60228;BME280;46091;46.512;6.626;2022-09-20T10:09:56;97297.38;;;18.34;41.39
60228;BME280;46091;46.512;6.626;2022-09-20T10:12:19;97293.44;;;18.37;41.44
60228;BME280;46091;46.512;6.626;2022-09-20T10:14:36;97299.13;;;18.41;41.29
60228;BME280;46091;46.512;6.626;2022-09-20T10:17:01;97290.28;;;18.40;41.29
60228;BME280;46091;46.512;6.626;2022-09-20T10:19:13;97290.41;;;18.45;41.09
60228;BME280;46091;46.512;6.626;2022-09-20T10:21:34;97291.81;;;18.48;40.93
60228;BME280;46091;46.512;6.626;2022-09-20T10:23:51;97288.53;;;18.46;40.87
60228;BME280;46091;46.512;6.626;2022-09-20T10:26:15;97293.88;;;18.46;40.87
60228;BME280;46091;46.512;6.626;2022-09-20T10:28:33;97283.78;;;18.48;40.93
60228;BME280;46091;46.512;6.626;2022-09-20T10:30:57;97288.09;;;18.49;40.77
60228;BME280;46091;46.512;6.626;2022-09-20T10:33:13;97294.84;;;18.51;40.49
60228;BME280;46091;46.512;6.626;2022-09-20T10:35:25;97292.75;;;18.53;40.57
60228;BME280;46091;46.512;6.626;2022-09-20T10:37:37;97279.69;;;18.57;40.52
60228;BME280;46091;46.512;6.626;2022-09-20T10:39:53;97283.56;;;18.61;40.31
60228;BME280;46091;46.512;6.626;2022-09-20T10:42:07;97267.63;;;18.66;40.39
60228;BME280;46091;46.512;6.626;2022-09-20T10:44:47;97270.69;;;18.70;40.49
60228;BME280;46091;46.512;6.626;2022-09-20T10:47:00;97273.38;;;18.70;40.19
60228;BME280;46091;46.512;6.626;2022-09-20T10:49:18;97268.44;;;18.67;40.31
60228;BME280;46091;46.512;6.626;2022-09-20T10:51:33;97262.66;;;18.70;40.32
60228;BME280;46091;46.512;6.626;2022-09-20T10:53:42;97273.94;;;18.72;40.04
60228;BME280;46091;46.512;6.626;2022-09-20T10:55:58;97264.03;;;18.72;40.26
60228;BME280;46091;46.512;6.626;2022-09-20T10:58:23;97266.13;;;18.70;40.06
60228;BME280;46091;46.512;6.626;2022-09-20T11:00:41;97262.03;;;18.68;40.06
60228;BME280;46091;46.512;6.626;2022-09-20T11:02:59;97266.13;;;18.70;40.04
60228;BME280;46091;46.512;6.626;2022-09-20T11:05:17;97275.56;;;18.73;39.90
60228;BME280;46091;46.512;6.626;2022-09-20T11:07:31;97264.03;;;18.72;39.82
60228;BME280;46091;46.512;6.626;2022-09-20T11:09:43;97266.00;;;18.77;39.86
60228;BME280;46091;46.512;6.626;2022-09-20T11:11:51;97266.13;;;18.82;39.85
60228;BME280;46091;46.512;6.626;2022-09-20T11:14:00;97267.28;;;18.86;39.76
60228;BME280;46091;46.512;6.626;2022-09-20T11:16:09;97271.84;;;18.85;39.50
60228;BME280;46091;46.512;6.626;2022-09-20T11:18:17;97265.44;;;18.86;39.64
60228;BME280;46091;46.512;6.626;2022-09-20T11:20:27;97267.06;;;18.87;39.63
60228;BME280;46091;46.512;6.626;2022-09-20T11:22:34;97266.81;;;18.89;39.49
60228;BME280;46091;46.512;6.626;2022-09-20T11:24:43;97272.06;;;18.96;39.61
60228;BME280;46091;46.512;6.626;2022-09-20T11:26:49;97265.19;;;19.00;39.50
60228;BME280;46091;46.512;6.626;2022-09-20T11:28:55;97272.75;;;19.03;39.44
60228;BME280;46091;46.512;6.626;2022-09-20T11:31:05;97270.66;;;19.05;39.31
60228;BME280;46091;46.512;6.626;2022-09-20T11:33:15;97271.00;;;19.08;39.19
60228;BME280;46091;46.512;6.626;2022-09-20T11:35:27;97261.09;;;19.09;39.19
60228;BME280;46091;46.512;6.626;2022-09-20T11:37:35;97268.66;;;19.12;39.22
60228;BME280;46091;46.512;6.626;2022-09-20T11:39:44;97266.34;;;19.15;39.03
60228;BME280;46091;46.512;6.626;2022-09-20T11:41:53;97256.75;;;19.19;39.19
60228;BME280;46091;46.512;6.626;2022-09-20T11:44:00;97260.50;;;19.18;39.13
60228;BME280;46091;46.512;6.626;2022-09-20T11:46:07;97267.25;;;19.21;38.89
60228;BME280;46091;46.512;6.626;2022-09-20T11:48:15;97261.06;;;19.20;38.92
60228;BME280;46091;46.512;6.626;2022-09-20T11:50:45;97260.25;;;19.20;38.96
60228;BME280;46091;46.512;6.626;2022-09-20T11:52:58;97267.00;;;19.23;38.76
60228;BME280;46091;46.512;6.626;2022-09-20T11:55:27;97261.63;;;19.23;38.64
60228;BME280;46091;46.512;6.626;2022-09-20T11:57:36;97267.81;;;19.23;38.65
60228;BME280;46091;46.512;6.626;2022-09-20T11:59:40;97254.16;;;19.25;38.69
60228;BME280;46091;46.512;6.626;2022-09-20T12:01:44;97260.72;;;19.29;38.76
60228;BME280;46091;46.512;6.626;2022-09-20T12:03:50;97270.94;;;19.32;38.72
60228;BME280;46091;46.512;6.626;2022-09-20T12:06:25;97257.78;;;19.30;38.73
60228;BME280;46091;46.512;6.626;2022-09-20T12:08:33;97263.47;;;19.34;38.49
60228;BME280;46091;46.512;6.626;2022-09-20T12:10:38;97257.06;;;19.35;38.58
60228;BME280;46091;46.512;6.626;2022-09-20T12:12:45;97257.66;;;19.37;38.64
60228;BME280;46091;46.512;6.626;2022-09-20T12:14:54;97253.94;;;19.38;38.59
60228;BME280;46091;46.512;6.626;2022-09-20T12:17:00;97253.44;;;19.41;38.47
60228;BME280;46091;46.512;6.626;2022-09-20T12:19:10;97258.31;;;19.44;38.54
60228;BME280;46091;46.512;6.626;2022-09-20T12:21:16;97256.22;;;19.46;38.32
60228;BME280;46091;46.512;6.626;2022-09-20T12:26:06;97241.28;;;19.50;38.22
60228;BME280;46091;46.512;6.626;2022-09-20T12:28:15;97249.91;;;19.52;38.25
60228;BME280;46091;46.512;6.626;2022-09-20T12:30:20;97239.19;;;19.52;38.06
60228;BME280;46091;46.512;6.626;2022-09-20T12:32:41;97244.31;;;19.54;38.11
60228;BME280;46091;46.512;6.626;2022-09-20T12:34:48;97247.22;;;19.52;38.06
60228;BME280;46091;46.512;6.626;2022-09-20T12:37:15;97246.97;;;19.54;38.05
60228;BME280;46091;46.512;6.626;2022-09-20T12:39:22;97246.16;;;19.53;37.90
60228;BME280;46091;46.512;6.626;2022-09-20T12:41:49;97247.22;;;19.52;37.93
60228;BME280;46091;46.512;6.626;2022-09-20T12:44:02;97239.66;;;19.49;37.87
60228;BME280;46091;46.512;6.626;2022-09-20T12:46:06;97238.13;;;19.53;37.76
60228;BME280;46091;46.512;6.626;2022-09-20T12:48:17;97235.19;;;19.55;37.77
60228;BME280;46091;46.512;6.626;2022-09-20T12:50:21;97238.47;;;19.57;37.78
60228;BME280;46091;46.512;6.626;2022-09-20T12:52:51;97241.97;;;19.57;37.48
60228;BME280;46091;46.512;6.626;2022-09-20T12:54:55;97230.78;;;19.60;37.23
60228;BME280;46091;46.512;6.626;2022-09-20T12:57:23;97235.34;;;19.60;37.40
60228;BME280;46091;46.512;6.626;2022-09-20T12:59:28;97236.16;;;19.60;37.26
60228;BME280;46091;46.512;6.626;2022-09-20T13:01:35;97227.06;;;19.61;37.23
60228;BME280;46091;46.512;6.626;2022-09-20T13:03:40;97234.63;;;19.64;36.92
60228;BME280;46091;46.512;6.626;2022-09-20T13:05:45;97223.66;;;19.66;36.84
60228;BME280;46091;46.512;6.626;2022-09-20T13:07:55;97237.38;;;19.69;36.90
60228;BME280;46091;46.512;6.626;2022-09-20T13:10:07;97226.66;;;19.69;36.80
60228;BME280;46091;46.512;6.626;2022-09-20T13:12:17;97225.59;;;19.70;36.72
60228;BME280;46091;46.512;6.626;2022-09-20T13:14:21;97226.44;;;19.71;36.54
60228;BME280;46091;46.512;6.626;2022-09-20T13:16:29;97229.94;;;19.71;36.35
60228;BME280;46091;46.512;6.626;2022-09-20T13:18:34;97229.94;;;19.71;36.07
60228;BME280;46091;46.512;6.626;2022-09-20T13:20:40;97221.06;;;19.71;35.62
60228;BME280;46091;46.512;6.626;2022-09-20T13:22:45;97224.06;;;19.74;35.63
60228;BME280;46091;46.512;6.626;2022-09-20T13:24:51;97225.22;;;19.78;35.64
60228;BME280;46091;46.512;6.626;2022-09-20T13:27:04;97221.22;;;19.81;35.31
60228;BME280;46091;46.512;6.626;2022-09-20T13:29:21;97217.50;;;19.82;35.05
60228;BME280;46091;46.512;6.626;2022-09-20T13:31:30;97224.25;;;19.85;35.17
60228;BME280;46091;46.512;6.626;2022-09-20T13:33:34;97219.72;;;19.85;35.23
60228;BME280;46091;46.512;6.626;2022-09-20T13:35:37;97214.09;;;19.87;34.87
60228;BME280;46091;46.512;6.626;2022-09-20T13:37:49;97217.59;;;19.87;35.04
60228;BME280;46091;46.512;6.626;2022-09-20T13:39:55;97213.59;;;19.90;34.80
60228;BME280;46091;46.512;6.626;2022-09-20T13:42:00;97214.16;;;19.92;34.83
60228;BME280;46091;46.512;6.626;2022-09-20T13:44:15;97207.75;;;19.93;34.88
60228;BME280;46091;46.512;6.626;2022-09-20T13:46:22;97211.03;;;19.95;34.72
60228;BME280;46091;46.512;6.626;2022-09-20T13:48:28;97213.22;;;19.98;34.56
60228;BME280;46091;46.512;6.626;2022-09-20T13:50:34;97222.88;;;19.99;34.63
60228;BME280;46091;46.512;6.626;2022-09-20T13:52:50;97214.03;;;19.98;34.38
60228;BME280;46091;46.512;6.626;2022-09-20T13:54:53;97214.59;;;20.00;34.50
60228;BME280;46091;46.512;6.626;2022-09-20T13:57:00;97215.41;;;20.01;34.61
60228;BME280;46091;46.512;6.626;2022-09-20T13:59:05;97199.31;;;20.01;34.44
60228;BME280;46091;46.512;6.626;2022-09-20T14:01:22;97206.28;;;20.02;34.45
60228;BME280;46091;46.512;6.626;2022-09-20T14:03:27;97208.97;;;20.02;34.47
60228;BME280;46091;46.512;6.626;2022-09-20T14:05:37;97210.13;;;20.06;34.26
60228;BME280;46091;46.512;6.626;2022-09-20T14:07:42;97198.34;;;20.07;34.26
60228;BME280;46091;46.512;6.626;2022-09-20T14:09:47;97212.34;;;20.09;34.17
60228;BME280;46091;46.512;6.626;2022-09-20T14:11:52;97213.94;;;20.10;34.00
60228;BME280;46091;46.512;6.626;2022-09-20T14:13:57;97211.03;;;20.12;34.08
60228;BME280;46091;46.512;6.626;2022-09-20T14:16:10;97207.28;;;20.13;34.04
60228;BME280;46091;46.512;6.626;2022-09-20T14:18:17;97206.47;;;20.12;33.89
60228;BME280;46091;46.512;6.626;2022-09-20T14:20:22;97204.34;;;20.14;33.87
60228;BME280;46091;46.512;6.626;2022-09-20T14:22:28;97204.34;;;20.14;34.13
60228;BME280;46091;46.512;6.626;2022-09-20T14:24:32;97200.03;;;20.13;34.10
60228;BME280;46091;46.512;6.626;2022-09-20T14:26:37;97205.16;;;20.15;34.10
60228;BME280;46091;46.512;6.626;2022-09-20T14:28:40;97194.66;;;20.13;33.84
60228;BME280;46091;46.512;6.626;2022-09-20T14:30:45;97200.03;;;20.13;33.73
60228;BME280;46091;46.512;6.626;2022-09-20T14:32:51;97202.72;;;20.13;33.87
60228;BME280;46091;46.512;6.626;2022-09-20T14:35:02;97189.66;;;20.17;33.70
60228;BME280;46091;46.512;6.626;2022-09-20T14:37:11;97190.69;;;20.16;33.81
60228;BME280;46091;46.512;6.626;2022-09-20T14:39:17;97194.78;;;20.18;33.95
60228;BME280;46091;46.512;6.626;2022-09-20T14:41:26;97202.25;;;20.16;34.09
60228;BME280;46091;46.512;6.626;2022-09-20T14:43:31;97196.88;;;20.16;33.86
60228;BME280;46091;46.512;6.626;2022-09-20T14:45:36;97196.03;;;20.16;33.83
60228;BME280;46091;46.512;6.626;2022-09-20T14:47:52;97191.53;;;20.16;33.91
60228;BME280;46091;46.512;6.626;2022-09-20T14:49:55;97195.56;;;20.19;33.89
60228;BME280;46091;46.512;6.626;2022-09-20T14:52:33;97199.63;;;20.21;33.90
60228;BME280;46091;46.512;6.626;2022-09-20T14:54:36;97189.72;;;20.22;33.95
60228;BME280;46091;46.512;6.626;2022-09-20T14:56:40;97189.97;;;20.20;33.87
60228;BME280;46091;46.512;6.626;2022-09-20T14:59:01;97184.59;;;20.20;33.81
60228;BME280;46091;46.512;6.626;2022-09-20T15:01:19;97201.75;;;20.19;33.76
60228;BME280;46091;46.512;6.626;2022-09-20T15:03:27;97187.28;;;20.20;33.89
60228;BME280;46091;46.512;6.626;2022-09-20T15:05:31;97186.47;;;20.20;33.83
60228;BME280;46091;46.512;6.626;2022-09-20T15:07:36;97198.81;;;20.21;33.63
60228;BME280;46091;46.512;6.626;2022-09-20T15:09:42;97193.22;;;20.22;33.74
60228;BME280;46091;46.512;6.626;2022-09-20T15:11:45;97190.53;;;20.22;33.57
60228;BME280;46091;46.512;6.626;2022-09-20T15:13:50;97187.28;;;20.20;33.57
60228;BME280;46091;46.512;6.626;2022-09-20T15:15:53;97198.00;;;20.20;33.68
60228;BME280;46091;46.512;6.626;2022-09-20T15:17:56;97185.66;;;20.19;33.67
60228;BME280;46091;46.512;6.626;2022-09-20T15:19:59;97194.78;;;20.18;33.84
60228;BME280;46091;46.512;6.626;2022-09-20T15:22:07;97199.06;;;20.19;33.76
60228;BME280;46091;46.512;6.626;2022-09-20T15:24:12;97190.47;;;20.17;33.77
60228;BME280;46091;46.512;6.626;2022-09-20T15:26:19;97200.13;;;20.18;33.74
60228;BME280;46091;46.512;6.626;2022-09-20T15:28:22;97193.16;;;20.17;33.73
60228;BME280;46091;46.512;6.626;2022-09-20T15:30:27;97191.28;;;20.18;33.58
60228;BME280;46091;46.512;6.626;2022-09-20T15:32:31;97181.81;;;20.15;33.71
60228;BME280;46091;46.512;6.626;2022-09-20T15:34:34;97192.00;;;20.13;33.68
60228;BME280;46091;46.512;6.626;2022-09-20T15:36:37;97185.56;;;20.14;33.72
60228;BME280;46091;46.512;6.626;2022-09-20T15:38:40;97188.25;;;20.14;33.80
60228;BME280;46091;46.512;6.626;2022-09-20T15:40:46;97188.25;;;20.14;33.67
60228;BME280;46091;46.512;6.626;2022-09-20T15:42:54;97189.06;;;20.15;33.74
60228;BME280;46091;46.512;6.626;2022-09-20T15:44:58;97195.22;;;20.15;33.66
60228;BME280;46091;46.512;6.626;2022-09-20T15:47:02;97196.88;;;20.16;33.69
60228;BME280;46091;46.512;6.626;2022-09-20T15:49:06;97193.59;;;20.14;33.76
60228;BME280;46091;46.512;6.626;2022-09-20T15:51:11;97199.22;;;20.13;33.95
60228;BME280;46091;46.512;6.626;2022-09-20T15:53:15;97191.16;;;20.13;33.62
60228;BME280;46091;46.512;6.626;2022-09-20T15:55:19;97198.41;;;20.12;33.57
60228;BME280;46091;46.512;6.626;2022-09-20T15:57:24;97200.28;;;20.12;33.77
60228;BME280;46091;46.512;6.626;2022-09-20T15:59:27;97211.50;;;20.09;33.85
60228;BME280;46091;46.512;6.626;2022-09-20T16:01:31;97207.47;;;20.06;33.71
60228;BME280;46091;46.512;6.626;2022-09-20T16:03:36;97202.09;;;20.06;33.68
60228;BME280;46091;46.512;6.626;2022-09-20T16:05:39;97196.72;;;20.06;33.83
60228;BME280;46091;46.512;6.626;2022-09-20T16:07:42;97204.78;;;20.06;33.90
60228;BME280;46091;46.512;6.626;2022-09-20T16:09:44;97203.72;;;20.07;33.76
60228;BME280;46091;46.512;6.626;2022-09-20T16:11:48;97201.03;;;20.07;33.70
60228;BME280;46091;46.512;6.626;2022-09-20T16:13:53;97208.50;;;20.05;33.80
60228;BME280;46091;46.512;6.626;2022-09-20T16:15:57;97205.47;;;20.01;33.90
60228;BME280;46091;46.512;6.626;2022-09-20T16:18:01;97209.16;;;19.95;33.78
60228;BME280;46091;46.512;6.626;2022-09-20T16:20:21;97211.50;;;19.92;33.98
60228;BME280;46091;46.512;6.626;2022-09-20T16:22:24;97214.16;;;19.92;34.04
60228;BME280;46091;46.512;6.626;2022-09-20T16:24:29;97210.91;;;19.90;33.90
60228;BME280;46091;46.512;6.626;2022-09-20T16:26:32;97220.84;;;19.89;33.79
60228;BME280;46091;46.512;6.626;2022-09-20T16:28:35;97215.97;;;19.86;33.91
60228;BME280;46091;46.512;6.626;2022-09-20T16:30:40;97212.16;;;19.82;33.86
60228;BME280;46091;46.512;6.626;2022-09-20T16:32:42;97214.59;;;19.84;33.79
60228;BME280;46091;46.512;6.626;2022-09-20T16:34:46;97219.94;;;19.84;33.68
60228;BME280;46091;46.512;6.626;2022-09-20T16:36:51;97223.69;;;19.83;33.95
60228;BME280;46091;46.512;6.626;2022-09-20T16:38:54;97213.41;;;19.80;34.01
60228;BME280;46091;46.512;6.626;2022-09-20T16:41:00;97220.91;;;19.77;34.12
60228;BME280;46091;46.512;6.626;2022-09-20T16:43:02;97220.09;;;19.77;33.92
60228;BME280;46091;46.512;6.626;2022-09-20T16:45:09;97214.16;;;19.75;33.96
60228;BME280;46091;46.512;6.626;2022-09-20T16:47:15;97216.28;;;19.73;33.90
60228;BME280;46091;46.512;6.626;2022-09-20T16:49:20;97221.88;;;19.71;33.97
60228;BME280;46091;46.512;6.626;2022-09-20T16:51:29;97224.78;;;19.70;34.07
60228;BME280;46091;46.512;6.626;2022-09-20T16:53:32;97218.59;;;19.69;34.11
60228;BME280;46091;46.512;6.626;2022-09-20T16:55:35;97219.41;;;19.70;34.16
60228;BME280;46091;46.512;6.626;2022-09-20T16:57:38;97216.53;;;19.71;34.23